createdAt,value
2016-11-25T00:00:40.521Z,0
2016-11-25T00:01:40.562Z,0
2016-11-25T00:02:40.635Z,0
2016-11-25T00:03:40.698Z,0
2016-11-25T00:04:40.737Z,0
2016-11-25T00:05:40.784Z,0
2016-11-25T00:06:40.866Z,0
2016-11-25T00:07:40.881Z,0
2016-11-25T00:08:40.948Z,0
2016-11-25T00:09:41.023Z,0
2016-11-25T00:10:41.057Z,0
2016-11-25T00:11:41.105Z,0
2016-11-25T00:12:41.174Z,0
2016-11-25T00:13:41.248Z,0
2016-11-25T00:14:41.304Z,0
2016-11-25T00:15:41.324Z,0
2016-11-25T00:16:41.411Z,0
2016-11-25T00:17:41.472Z,0
2016-11-25T00:18:41.827Z,0
2016-11-25T00:19:41.601Z,0
2016-11-25T00:20:41.622Z,0
2016-11-25T00:21:41.685Z,0
2016-11-25T00:22:41.731Z,0
2016-11-25T00:23:41.792Z,0
2016-11-25T00:24:41.844Z,0
2016-11-25T00:25:41.911Z,0
2016-11-25T00:26:41.995Z,0
2016-11-25T00:27:42.023Z,0
2016-11-25T00:28:42.073Z,0
2016-11-25T00:29:42.127Z,0
2016-11-25T00:30:42.198Z,0
2016-11-25T00:31:42.260Z,0
2016-11-25T00:32:42.296Z,0
2016-11-25T00:33:42.355Z,0
2016-11-25T00:34:42.419Z,0
2016-11-25T00:35:42.482Z,0
2016-11-25T00:36:42.541Z,0
2016-11-25T00:37:42.601Z,0
2016-11-25T00:38:42.665Z,0
2016-11-25T00:39:42.701Z,0
2016-11-25T00:40:42.736Z,0
2016-11-25T00:41:42.812Z,0
2016-11-25T00:42:42.875Z,0
2016-11-25T00:43:42.953Z,0
2016-11-25T00:44:42.969Z,0
2016-11-25T00:45:43.046Z,0
2016-11-25T00:46:43.089Z,0
2016-11-25T00:47:43.132Z,0
2016-11-25T00:48:43.206Z,0
2016-11-25T00:49:43.275Z,0
2016-11-25T00:50:43.319Z,0
2016-11-25T00:51:43.375Z,0
2016-11-25T00:52:43.434Z,0
2016-11-25T00:53:43.487Z,0
2016-11-25T00:54:43.538Z,0
2016-11-25T00:55:43.608Z,0
2016-11-25T00:56:43.655Z,0
2016-11-25T00:57:43.693Z,0
2016-11-25T00:58:43.785Z,0
2016-11-25T00:59:43.857Z,0
2016-11-25T01:00:43.893Z,0
2016-11-25T01:01:43.920Z,0
2016-11-25T01:02:43.994Z,0
2016-11-25T01:03:44.056Z,0
2016-11-25T01:04:44.115Z,0
2016-11-25T01:05:44.176Z,0
2016-11-25T01:06:44.232Z,0
2016-11-25T01:07:44.282Z,0
2016-11-25T01:08:44.358Z,0
2016-11-25T01:09:44.416Z,0
2016-11-25T01:10:44.480Z,0
2016-11-25T01:11:44.521Z,0
2016-11-25T01:12:44.578Z,0
2016-11-25T01:13:44.613Z,0
2016-11-25T01:14:44.696Z,0
2016-11-25T01:15:44.741Z,0
2016-11-25T01:16:44.818Z,0
2016-11-25T01:17:44.841Z,0
2016-11-25T01:18:44.903Z,0
2016-11-25T01:19:44.939Z,0
2016-11-25T01:20:45.047Z,0
2016-11-25T01:21:45.100Z,0
2016-11-25T01:22:45.158Z,0
2016-11-25T01:23:45.204Z,0
2016-11-25T01:24:45.249Z,0
2016-11-25T01:25:45.308Z,0
2016-11-25T01:26:45.360Z,0
2016-11-25T01:27:45.415Z,0
2016-11-25T01:28:45.471Z,0
2016-11-25T01:29:45.541Z,0
2016-11-25T01:30:45.574Z,0
2016-11-25T01:31:45.926Z,0
2016-11-25T01:32:45.750Z,0
2016-11-25T01:33:45.753Z,0
2016-11-25T01:34:45.802Z,0
2016-11-25T01:35:45.900Z,0
2016-11-25T01:36:45.945Z,0
2016-11-25T01:37:45.984Z,0
2016-11-25T01:38:46.038Z,0
2016-11-25T01:39:46.114Z,0
2016-11-25T01:40:46.167Z,0
2016-11-25T01:41:46.200Z,0
2016-11-25T01:42:46.256Z,0
2016-11-25T01:43:46.304Z,0
2016-11-25T01:44:46.408Z,0
2016-11-25T01:45:46.436Z,0
2016-11-25T01:46:46.500Z,0
2016-11-25T01:47:46.565Z,0
2016-11-25T01:48:46.620Z,0
2016-11-25T01:49:46.673Z,0
2016-11-25T01:50:46.718Z,0
2016-11-25T01:51:46.771Z,0
2016-11-25T01:52:46.827Z,0
2016-11-25T01:53:46.900Z,0
2016-11-25T01:54:46.946Z,0
2016-11-25T01:55:47.024Z,0
2016-11-25T01:56:47.073Z,0
2016-11-25T01:57:47.146Z,0
2016-11-25T01:58:47.217Z,0
2016-11-25T01:59:47.240Z,0
2016-11-25T02:00:47.297Z,0
2016-11-25T02:01:47.342Z,0
2016-11-25T02:02:47.404Z,0
2016-11-25T02:03:47.482Z,0
2016-11-25T02:04:47.525Z,0
2016-11-25T02:05:47.586Z,0
2016-11-25T02:06:47.660Z,0
2016-11-25T02:07:47.672Z,0
2016-11-25T02:08:47.767Z,0
2016-11-25T02:09:47.805Z,0
2016-11-25T02:10:47.828Z,0
2016-11-25T02:11:47.900Z,0
2016-11-25T02:12:47.945Z,0
2016-11-25T02:13:48.044Z,0
2016-11-25T02:14:48.094Z,0
2016-11-25T02:15:48.147Z,0
2016-11-25T02:16:48.197Z,0
2016-11-25T02:17:48.250Z,0
2016-11-25T02:18:48.321Z,0
2016-11-25T02:19:48.365Z,0
2016-11-25T02:20:48.429Z,0
2016-11-25T02:21:48.477Z,0
2016-11-25T02:22:48.521Z,0
2016-11-25T02:23:48.596Z,0
2016-11-25T02:24:48.648Z,0
2016-11-25T02:25:48.697Z,0
2016-11-25T02:26:48.767Z,0
2016-11-25T02:27:48.831Z,0
2016-11-25T02:28:48.883Z,0
2016-11-25T02:29:48.930Z,0
2016-11-25T02:30:49.003Z,0
2016-11-25T02:31:49.037Z,0
2016-11-25T02:32:49.402Z,0
2016-11-25T02:33:49.165Z,0
2016-11-25T02:34:49.199Z,0
2016-11-25T02:35:49.277Z,0
2016-11-25T02:36:49.320Z,0
2016-11-25T02:37:49.409Z,0
2016-11-25T02:38:49.415Z,0
2016-11-25T02:39:49.486Z,0
2016-11-25T02:40:49.537Z,0
2016-11-25T02:41:49.613Z,0
2016-11-25T02:42:49.666Z,0
2016-11-25T02:43:49.733Z,0
2016-11-25T02:44:49.800Z,0
2016-11-25T02:45:49.835Z,0
2016-11-25T02:46:49.881Z,0
2016-11-25T02:47:49.947Z,0
2016-11-25T02:48:49.999Z,0
2016-11-25T02:49:50.047Z,0
2016-11-25T02:50:50.127Z,0
2016-11-25T02:51:50.147Z,0
2016-11-25T02:52:50.200Z,0
2016-11-25T02:53:50.302Z,0
2016-11-25T02:54:50.669Z,0
2016-11-25T02:55:50.375Z,0
2016-11-25T02:56:50.457Z,0
2016-11-25T02:57:50.527Z,0
2016-11-25T02:58:50.563Z,0
2016-11-25T02:59:50.626Z,0
2016-11-25T03:00:50.670Z,0
2016-11-25T03:01:50.750Z,0
2016-11-25T03:02:50.788Z,0
2016-11-25T03:03:50.841Z,0
2016-11-25T03:04:50.900Z,0
2016-11-25T03:05:50.977Z,0
2016-11-25T03:06:51.046Z,0
2016-11-25T03:07:51.070Z,0
2016-11-25T03:08:51.120Z,0
2016-11-25T03:09:51.204Z,0
2016-11-25T03:10:51.267Z,0
2016-11-25T03:11:51.307Z,0
2016-11-25T03:12:51.353Z,0
2016-11-25T03:13:51.407Z,0
2016-11-25T03:14:51.480Z,0
2016-11-25T03:15:51.529Z,0
2016-11-25T03:16:51.580Z,0
2016-11-25T03:17:51.648Z,0
2016-11-25T03:18:51.672Z,0
2016-11-25T03:19:51.758Z,0
2016-11-25T03:20:51.817Z,0
2016-11-25T03:21:51.861Z,0
2016-11-25T03:22:51.953Z,0
2016-11-25T03:23:51.958Z,0
2016-11-25T03:24:52.043Z,0
2016-11-25T03:25:52.113Z,0
2016-11-25T03:26:52.128Z,0
2016-11-25T03:27:52.206Z,0
2016-11-25T03:28:52.306Z,0
2016-11-25T03:29:52.338Z,0
2016-11-25T03:30:52.384Z,0
2016-11-25T03:31:52.433Z,0
2016-11-25T03:32:52.478Z,0
2016-11-25T03:33:52.551Z,0
2016-11-25T03:34:52.593Z,0
2016-11-25T03:35:52.671Z,0
2016-11-25T03:36:52.710Z,0
2016-11-25T03:37:52.797Z,0
2016-11-25T03:38:52.807Z,0
2016-11-25T03:39:52.875Z,0
2016-11-25T03:40:52.943Z,0
2016-11-25T03:41:53.000Z,0
2016-11-25T03:42:53.036Z,0
2016-11-25T03:43:53.100Z,0
2016-11-25T03:44:53.161Z,0
2016-11-25T03:45:53.231Z,0
2016-11-25T03:46:53.294Z,0
2016-11-25T03:47:53.339Z,0
2016-11-25T03:48:53.392Z,0
2016-11-25T03:49:53.462Z,0
2016-11-25T03:50:53.516Z,0
2016-11-25T03:51:53.550Z,0
2016-11-25T03:52:53.615Z,0
2016-11-25T03:53:53.679Z,0
2016-11-25T03:54:53.772Z,0
2016-11-25T03:55:53.814Z,0
2016-11-25T03:56:53.824Z,0
2016-11-25T03:57:53.943Z,0
2016-11-25T03:58:53.952Z,0
2016-11-25T03:59:54.019Z,0
2016-11-25T04:00:54.072Z,0
2016-11-25T04:01:54.123Z,0
2016-11-25T04:02:54.177Z,0
2016-11-25T04:03:54.234Z,0
2016-11-25T04:04:54.286Z,0
2016-11-25T04:05:54.366Z,0
2016-11-25T04:06:54.403Z,0
2016-11-25T04:07:54.478Z,0
2016-11-25T04:08:54.528Z,0
2016-11-25T04:09:54.575Z,0
2016-11-25T04:10:54.628Z,0
2016-11-25T04:11:54.715Z,0
2016-11-25T04:12:54.740Z,0
2016-11-25T04:13:54.810Z,0
2016-11-25T04:14:54.859Z,0
2016-11-25T04:15:54.903Z,0
2016-11-25T04:16:54.961Z,0
2016-11-25T04:17:55.038Z,0
2016-11-25T04:18:55.081Z,0
2016-11-25T04:19:55.129Z,0
2016-11-25T04:20:55.220Z,0
2016-11-25T04:21:55.243Z,0
2016-11-25T04:22:55.302Z,0
2016-11-25T04:23:55.373Z,0
2016-11-25T04:24:55.436Z,0
2016-11-25T04:25:55.477Z,0
2016-11-25T04:26:55.547Z,0
2016-11-25T04:27:55.611Z,0
2016-11-25T04:28:55.644Z,0
2016-11-25T04:29:55.703Z,0
2016-11-25T04:30:55.772Z,0
2016-11-25T04:31:55.836Z,0
2016-11-25T04:32:55.867Z,0
2016-11-25T04:33:55.915Z,0
2016-11-25T04:34:55.985Z,0
2016-11-25T04:35:56.023Z,0
2016-11-25T04:36:56.095Z,0
2016-11-25T04:37:56.175Z,0
2016-11-25T04:38:56.195Z,0
2016-11-25T04:39:56.262Z,0
2016-11-25T04:40:56.322Z,0
2016-11-25T04:41:56.387Z,0
2016-11-25T04:42:56.463Z,0
2016-11-25T04:43:56.501Z,0
2016-11-25T04:44:56.571Z,0
2016-11-25T04:45:56.607Z,0
2016-11-25T04:46:56.695Z,0
2016-11-25T04:47:56.749Z,0
2016-11-25T04:48:56.799Z,0
2016-11-25T04:49:56.836Z,0
2016-11-25T04:50:56.873Z,0
2016-11-25T04:51:56.954Z,0
2016-11-25T04:52:56.990Z,0
2016-11-25T04:53:57.052Z,0
2016-11-25T04:54:57.121Z,0
2016-11-25T04:55:57.493Z,0
2016-11-25T04:56:57.238Z,0
2016-11-25T04:57:57.275Z,0
2016-11-25T04:58:57.336Z,0
2016-11-25T04:59:57.399Z,0
2016-11-25T05:00:57.497Z,0
2016-11-25T05:01:57.528Z,0
2016-11-25T05:02:57.575Z,0
2016-11-25T05:03:57.630Z,0
2016-11-25T05:04:57.708Z,0
2016-11-25T05:05:57.748Z,0
2016-11-25T05:06:57.807Z,0
2016-11-25T05:07:57.855Z,0
2016-11-25T05:08:57.923Z,0
2016-11-25T05:09:57.970Z,0
2016-11-25T05:10:58.343Z,0
2016-11-25T05:11:58.102Z,0
2016-11-25T05:12:58.148Z,0
2016-11-25T05:13:58.189Z,0
2016-11-25T05:14:58.241Z,0
2016-11-25T05:15:58.314Z,0
2016-11-25T05:16:58.459Z,0
2016-11-25T05:17:58.417Z,0
2016-11-25T05:18:58.465Z,0
2016-11-25T05:19:58.530Z,0
2016-11-25T05:20:58.599Z,0
2016-11-25T05:21:58.643Z,0
2016-11-25T05:22:58.713Z,0
2016-11-25T05:23:58.765Z,0
2016-11-25T05:24:58.819Z,0
2016-11-25T05:25:58.875Z,0
2016-11-25T05:26:58.924Z,0
2016-11-25T05:27:58.988Z,0
2016-11-25T05:28:59.050Z,0
2016-11-25T05:29:59.094Z,0
2016-11-25T05:30:59.139Z,0
2016-11-25T05:31:59.232Z,0
2016-11-25T05:32:59.243Z,0
2016-11-25T05:33:59.317Z,0
2016-11-25T05:34:59.377Z,0
2016-11-25T05:35:59.431Z,0
2016-11-25T05:36:59.521Z,0
2016-11-25T05:37:59.557Z,0
2016-11-25T05:38:59.592Z,0
2016-11-25T05:39:59.686Z,0
2016-11-25T05:40:59.741Z,0
2016-11-25T05:41:59.787Z,0
2016-11-25T05:42:59.842Z,0
2016-11-25T05:43:59.892Z,0
2016-11-25T05:44:59.930Z,0
2016-11-25T05:46:00.031Z,0
2016-11-25T05:47:00.069Z,0
2016-11-25T05:48:00.139Z,0
2016-11-25T05:49:00.155Z,0
2016-11-25T05:50:00.265Z,0
2016-11-25T05:51:00.313Z,0
2016-11-25T05:52:00.323Z,0
2016-11-25T05:53:00.728Z,0
2016-11-25T05:54:00.462Z,0
2016-11-25T05:55:00.536Z,0
2016-11-25T05:56:00.577Z,0
2016-11-25T05:57:00.623Z,0
2016-11-25T05:58:00.733Z,0
2016-11-25T05:59:00.733Z,0
2016-11-25T06:00:00.811Z,0
2016-11-25T06:01:00.868Z,0
2016-11-25T06:02:00.914Z,0
2016-11-25T06:03:00.986Z,0
2016-11-25T06:04:01.038Z,0
2016-11-25T06:05:01.121Z,0
2016-11-25T06:06:01.151Z,0
2016-11-25T06:07:01.228Z,0
2016-11-25T06:08:01.254Z,0
2016-11-25T06:09:01.356Z,0
2016-11-25T06:10:01.376Z,0
2016-11-25T06:11:01.727Z,0
2016-11-25T06:12:01.487Z,0
2016-11-25T06:13:01.560Z,0
2016-11-25T06:14:01.624Z,0
2016-11-25T06:15:01.647Z,0
2016-11-25T06:16:01.703Z,0
2016-11-25T06:17:01.752Z,0
2016-11-25T06:18:01.830Z,0
2016-11-25T06:19:01.872Z,0
2016-11-25T06:20:01.950Z,0
2016-11-25T06:21:02.009Z,0
2016-11-25T06:22:02.365Z,0
2016-11-25T06:23:02.153Z,0
2016-11-25T06:24:02.169Z,0
2016-11-25T06:25:02.233Z,0
2016-11-25T06:26:02.277Z,0
2016-11-25T06:27:02.324Z,0
2016-11-25T06:28:02.371Z,0
2016-11-25T06:29:02.465Z,0
2016-11-25T06:30:02.515Z,0
2016-11-25T06:31:02.562Z,0
2016-11-25T06:32:02.620Z,0
2016-11-25T06:33:02.684Z,0
2016-11-25T06:34:02.719Z,0
2016-11-25T06:35:02.787Z,0
2016-11-25T06:36:03.135Z,0
2016-11-25T06:37:02.917Z,0
2016-11-25T06:38:02.957Z,0
2016-11-25T06:39:03.013Z,0
2016-11-25T06:40:03.077Z,0
2016-11-25T06:41:03.149Z,0
2016-11-25T06:42:03.185Z,0
2016-11-25T06:43:03.238Z,0
2016-11-25T06:44:03.310Z,0
2016-11-25T06:45:03.370Z,0
2016-11-25T06:46:03.411Z,0
2016-11-25T06:47:03.457Z,0
2016-11-25T06:48:03.529Z,0
2016-11-25T06:49:03.574Z,0
2016-11-25T06:50:03.612Z,0
2016-11-25T06:51:03.697Z,0
2016-11-25T06:52:03.743Z,0
2016-11-25T06:53:03.800Z,0
2016-11-25T06:54:03.887Z,0
2016-11-25T06:55:03.916Z,0
2016-11-25T06:56:03.979Z,0
2016-11-25T06:57:04.017Z,0
2016-11-25T06:58:04.106Z,0
2016-11-25T06:59:04.125Z,0
2016-11-25T07:00:04.177Z,0
2016-11-25T07:01:04.245Z,0
2016-11-25T07:02:04.314Z,0
2016-11-25T07:03:04.695Z,0
2016-11-25T07:04:04.416Z,0
2016-11-25T07:05:04.490Z,0
2016-11-25T07:06:04.543Z,0
2016-11-25T07:07:04.602Z,0
2016-11-25T07:08:04.686Z,0
2016-11-25T07:09:04.700Z,0
2016-11-25T07:10:04.783Z,0
2016-11-25T07:11:04.840Z,0
2016-11-25T07:12:04.903Z,0
2016-11-25T07:13:04.936Z,5
2016-11-25T07:14:04.983Z,5
2016-11-25T07:15:05.050Z,5
2016-11-25T07:16:05.129Z,5
2016-11-25T07:17:05.181Z,5
2016-11-25T07:18:05.249Z,5
2016-11-25T07:19:05.303Z,5
2016-11-25T07:20:05.327Z,5
2016-11-25T07:21:05.391Z,5
2016-11-25T07:22:05.450Z,5
2016-11-25T07:23:05.491Z,5
2016-11-25T07:24:05.564Z,5
2016-11-25T07:25:05.619Z,5
2016-11-25T07:26:05.690Z,5
2016-11-25T07:27:05.728Z,5
2016-11-25T07:28:05.785Z,5
2016-11-25T07:29:05.855Z,5
2016-11-25T07:30:05.922Z,5
2016-11-25T07:31:05.972Z,5
2016-11-25T07:32:06.037Z,5
2016-11-25T07:33:06.083Z,5
2016-11-25T07:34:06.146Z,5
2016-11-25T07:35:06.180Z,5
2016-11-25T07:36:06.252Z,10
2016-11-25T07:37:06.277Z,10
2016-11-25T07:38:06.373Z,10
2016-11-25T07:39:06.390Z,10
2016-11-25T07:40:06.473Z,10
2016-11-25T07:41:06.545Z,10
2016-11-25T07:42:06.685Z,10
2016-11-25T07:43:06.621Z,10
2016-11-25T07:44:06.704Z,10
2016-11-25T07:45:06.743Z,10
2016-11-25T07:46:06.798Z,10
2016-11-25T07:47:06.838Z,10
2016-11-25T07:48:06.922Z,10
2016-11-25T07:49:06.984Z,10
2016-11-25T07:50:07.041Z,10
2016-11-25T07:51:07.077Z,10
2016-11-25T07:52:07.138Z,10
2016-11-25T07:53:07.210Z,10
2016-11-25T07:54:07.280Z,15
2016-11-25T07:55:07.330Z,15
2016-11-25T07:56:07.373Z,15
2016-11-25T07:57:07.419Z,15
2016-11-25T07:58:07.497Z,15
2016-11-25T07:59:07.533Z,15
2016-11-25T08:00:07.605Z,15
2016-11-25T08:01:07.663Z,15
2016-11-25T08:02:07.701Z,15
2016-11-25T08:03:07.772Z,15
2016-11-25T08:04:07.821Z,20
2016-11-25T08:05:07.887Z,20
2016-11-25T08:06:07.933Z,20
2016-11-25T08:07:07.977Z,20
2016-11-25T08:08:08.218Z,20
2016-11-25T08:09:08.109Z,25
2016-11-25T08:10:08.152Z,25
2016-11-25T08:11:08.200Z,20
2016-11-25T08:12:08.245Z,20
2016-11-25T08:13:08.336Z,20
2016-11-25T08:14:08.387Z,20
2016-11-25T08:15:08.432Z,20
2016-11-25T08:16:08.493Z,20
2016-11-25T08:17:08.561Z,20
2016-11-25T08:18:08.615Z,20
2016-11-25T08:19:08.664Z,20
2016-11-25T08:20:08.743Z,20
2016-11-25T08:21:08.780Z,20
2016-11-25T08:22:08.833Z,20
2016-11-25T08:23:08.892Z,20
2016-11-25T08:24:08.960Z,20
2016-11-25T08:25:08.995Z,20
2016-11-25T08:26:09.075Z,20
2016-11-25T08:27:09.115Z,20
2016-11-25T08:28:09.185Z,20
2016-11-25T08:29:09.215Z,20
2016-11-25T08:30:09.293Z,20
2016-11-25T08:31:09.363Z,20
2016-11-25T08:32:09.412Z,20
2016-11-25T08:33:09.479Z,20
2016-11-25T08:34:09.522Z,20
2016-11-25T08:35:09.584Z,20
2016-11-25T08:36:09.615Z,20
2016-11-25T08:37:09.694Z,25
2016-11-25T08:38:09.768Z,25
2016-11-25T08:39:09.784Z,25
2016-11-25T08:40:09.862Z,25
2016-11-25T08:41:09.913Z,30
2016-11-25T08:42:09.964Z,35
2016-11-25T08:43:10.024Z,35
2016-11-25T08:44:10.074Z,35
2016-11-25T08:45:10.155Z,35
2016-11-25T08:46:10.193Z,30
2016-11-25T08:47:10.267Z,25
2016-11-25T08:48:10.307Z,25
2016-11-25T08:49:10.373Z,25
2016-11-25T08:50:10.418Z,30
2016-11-25T08:51:10.512Z,30
2016-11-25T08:52:10.553Z,30
2016-11-25T08:53:10.633Z,35
2016-11-25T08:54:10.659Z,30
2016-11-25T08:55:11.033Z,30
2016-11-25T08:56:10.771Z,30
2016-11-25T08:57:10.841Z,30
2016-11-25T08:58:10.881Z,30
2016-11-25T08:59:10.946Z,30
2016-11-25T09:00:10.985Z,30
2016-11-25T09:01:11.049Z,25
2016-11-25T09:02:11.433Z,25
2016-11-25T09:03:11.184Z,25
2016-11-25T09:04:11.285Z,20
2016-11-25T09:05:11.313Z,20
2016-11-25T09:06:11.333Z,25
2016-11-25T09:07:11.415Z,25
2016-11-25T09:08:11.452Z,25
2016-11-25T09:09:11.530Z,25
2016-11-25T09:10:11.560Z,25
2016-11-25T09:11:11.641Z,25
2016-11-25T09:12:11.678Z,25
2016-11-25T09:13:11.764Z,25
2016-11-25T09:14:12.132Z,25
2016-11-25T09:15:11.875Z,25
2016-11-25T09:16:11.911Z,25
2016-11-25T09:17:11.968Z,30
2016-11-25T09:18:12.049Z,30
2016-11-25T09:19:12.087Z,30
2016-11-25T09:20:12.138Z,30
2016-11-25T09:21:12.210Z,30
2016-11-25T09:22:12.248Z,30
2016-11-25T09:23:12.327Z,30
2016-11-25T09:24:12.367Z,25
2016-11-25T09:25:12.623Z,25
2016-11-25T09:26:12.489Z,25
2016-11-25T09:27:12.550Z,25
2016-11-25T09:28:12.611Z,25
2016-11-25T09:29:12.662Z,25
2016-11-25T09:30:12.694Z,25
2016-11-25T09:31:12.783Z,25
2016-11-25T09:32:12.804Z,20
2016-11-25T09:33:12.890Z,20
2016-11-25T09:34:12.941Z,20
2016-11-25T09:35:13.018Z,20
2016-11-25T09:36:13.056Z,25
2016-11-25T09:37:13.107Z,25
2016-11-25T09:38:13.187Z,30
2016-11-25T09:39:13.225Z,30
2016-11-25T09:40:13.304Z,30
2016-11-25T09:41:13.346Z,35
2016-11-25T09:42:13.722Z,30
2016-11-25T09:43:13.451Z,25
2016-11-25T09:44:13.513Z,25
2016-11-25T09:45:13.588Z,25
2016-11-25T09:46:13.633Z,25
2016-11-25T09:47:13.704Z,25
2016-11-25T09:48:13.755Z,35
2016-11-25T09:49:13.778Z,30
2016-11-25T09:50:13.850Z,35
2016-11-25T09:51:13.913Z,30
2016-11-25T09:52:14.004Z,30
2016-11-25T09:53:14.028Z,30
2016-11-25T09:54:14.101Z,30
2016-11-25T09:55:14.147Z,30
2016-11-25T09:56:14.191Z,35
2016-11-25T09:57:14.280Z,45
2016-11-25T09:58:14.297Z,35
2016-11-25T09:59:14.365Z,30
2016-11-25T10:00:14.435Z,30
2016-11-25T10:01:14.505Z,30
2016-11-25T10:02:14.570Z,30
2016-11-25T10:03:14.626Z,30
2016-11-25T10:04:14.663Z,30
2016-11-25T10:05:14.705Z,25
2016-11-25T10:06:14.802Z,25
2016-11-25T10:07:14.834Z,20
2016-11-25T10:08:14.870Z,20
2016-11-25T10:09:14.963Z,15
2016-11-25T10:10:15.015Z,15
2016-11-25T10:11:15.090Z,20
2016-11-25T10:12:15.145Z,20
2016-11-25T10:13:15.183Z,15
2016-11-25T10:14:15.249Z,15
2016-11-25T10:15:15.306Z,20
2016-11-25T10:16:15.508Z,20
2016-11-25T10:17:15.426Z,20
2016-11-25T10:18:15.471Z,20
2016-11-25T10:19:15.538Z,20
2016-11-25T10:20:15.601Z,15
2016-11-25T10:21:15.975Z,15
2016-11-25T10:22:15.702Z,15
2016-11-25T10:23:15.767Z,20
2016-11-25T10:24:16.140Z,20
2016-11-25T10:25:15.877Z,20
2016-11-25T10:26:15.939Z,20
2016-11-25T10:27:15.977Z,15
2016-11-25T10:28:16.046Z,15
2016-11-25T10:29:16.094Z,15
2016-11-25T10:30:16.139Z,15
2016-11-25T10:31:16.221Z,15
2016-11-25T10:32:16.280Z,15
2016-11-25T10:33:16.354Z,15
2016-11-25T10:34:16.394Z,15
2016-11-25T10:35:16.447Z,15
2016-11-25T10:36:16.530Z,10
2016-11-25T10:37:16.556Z,10
2016-11-25T10:38:16.638Z,10
2016-11-25T10:39:16.695Z,10
2016-11-25T10:40:16.734Z,10
2016-11-25T10:41:16.826Z,10
2016-11-25T10:42:16.869Z,10
2016-11-25T10:43:16.977Z,10
2016-11-25T10:44:16.991Z,10
2016-11-25T10:45:17.052Z,10
2016-11-25T10:46:17.089Z,10
2016-11-25T10:47:17.142Z,10
2016-11-25T10:48:17.180Z,10
2016-11-25T10:49:17.270Z,5
2016-11-25T10:50:17.314Z,5
2016-11-25T10:51:17.364Z,5
2016-11-25T10:52:17.418Z,5
2016-11-25T10:53:17.502Z,5
2016-11-25T10:54:17.543Z,5
2016-11-25T10:55:17.624Z,5
2016-11-25T10:56:17.664Z,5
2016-11-25T10:57:17.736Z,5
2016-11-25T10:58:17.772Z,5
2016-11-25T10:59:17.828Z,5
2016-11-25T11:00:17.916Z,10
2016-11-25T11:01:17.945Z,10
2016-11-25T11:02:18.004Z,10
2016-11-25T11:03:18.055Z,10
2016-11-25T11:04:18.127Z,10
2016-11-25T11:05:18.183Z,10
2016-11-25T11:06:18.232Z,10
2016-11-25T11:07:18.303Z,10
2016-11-25T11:08:18.342Z,15
2016-11-25T11:09:18.745Z,15
2016-11-25T11:10:18.466Z,15
2016-11-25T11:11:18.503Z,15
2016-11-25T11:12:18.568Z,10
2016-11-25T11:13:18.617Z,10
2016-11-25T11:14:18.688Z,15
2016-11-25T11:15:18.757Z,15
2016-11-25T11:16:18.834Z,15
2016-11-25T11:17:18.878Z,15
2016-11-25T11:18:18.897Z,15
2016-11-25T11:19:18.978Z,10
2016-11-25T11:20:19.069Z,10
2016-11-25T11:21:19.074Z,10
2016-11-25T11:22:19.146Z,10
2016-11-25T11:23:19.218Z,10
2016-11-25T11:24:19.265Z,10
2016-11-25T11:25:19.318Z,10
2016-11-25T11:26:19.380Z,15
2016-11-25T11:27:19.412Z,15
2016-11-25T11:28:19.517Z,15
2016-11-25T11:29:19.552Z,15
2016-11-25T11:30:19.608Z,15
2016-11-25T11:31:19.669Z,15
2016-11-25T11:32:19.726Z,15
2016-11-25T11:33:19.799Z,20
2016-11-25T11:34:20.188Z,20
2016-11-25T11:35:19.913Z,20
2016-11-25T11:36:19.944Z,20
2016-11-25T11:37:20.000Z,20
2016-11-25T11:38:20.057Z,20
2016-11-25T11:39:20.129Z,20
2016-11-25T11:40:20.187Z,20
2016-11-25T11:41:20.231Z,25
2016-11-25T11:42:20.315Z,25
2016-11-25T11:43:20.329Z,25
2016-11-25T11:44:20.399Z,30
2016-11-25T11:45:20.465Z,35
2016-11-25T11:46:20.532Z,35
2016-11-25T11:47:20.561Z,35
2016-11-25T11:48:20.634Z,30
2016-11-25T11:49:20.706Z,30
2016-11-25T11:50:20.771Z,25
2016-11-25T11:51:20.788Z,25
2016-11-25T11:52:20.859Z,25
2016-11-25T11:53:20.936Z,25
2016-11-25T11:54:20.950Z,25
2016-11-25T11:55:21.044Z,25
2016-11-25T11:56:21.107Z,30
2016-11-25T11:57:21.160Z,35
2016-11-25T11:58:21.197Z,35
2016-11-25T11:59:21.247Z,40
2016-11-25T12:00:21.320Z,45
2016-11-25T12:01:21.380Z,50
2016-11-25T12:02:21.444Z,50
2016-11-25T12:03:21.603Z,55
2016-11-25T12:04:21.568Z,55
2016-11-25T12:05:21.605Z,60
2016-11-25T12:06:21.648Z,60
2016-11-25T12:07:21.737Z,60
2016-11-25T12:08:21.792Z,60
2016-11-25T12:09:21.846Z,55
2016-11-25T12:10:21.917Z,55
2016-11-25T12:11:21.955Z,60
2016-11-25T12:12:22.021Z,60
2016-11-25T12:13:22.078Z,55
2016-11-25T12:14:22.149Z,65
2016-11-25T12:15:22.179Z,60
2016-11-25T12:16:22.253Z,55
2016-11-25T12:17:22.300Z,60
2016-11-25T12:18:22.467Z,60
2016-11-25T12:19:22.407Z,65
2016-11-25T12:20:22.490Z,70
2016-11-25T12:21:22.531Z,75
2016-11-25T12:22:22.573Z,75
2016-11-25T12:23:22.677Z,75
2016-11-25T12:24:22.724Z,70
2016-11-25T12:25:22.760Z,60
2016-11-25T12:26:22.812Z,55
2016-11-25T12:27:22.871Z,50
2016-11-25T12:28:22.919Z,55
2016-11-25T12:29:23.002Z,50
2016-11-25T12:30:23.072Z,50
2016-11-25T12:31:23.121Z,45
2016-11-25T12:32:23.158Z,40
2016-11-25T12:33:23.212Z,40
2016-11-25T12:34:23.286Z,45
2016-11-25T12:35:23.360Z,50
2016-11-25T12:36:23.385Z,45
2016-11-25T12:37:23.454Z,45
2016-11-25T12:38:23.481Z,45
2016-11-25T12:39:23.578Z,40
2016-11-25T12:40:23.614Z,35
2016-11-25T12:41:23.667Z,35
2016-11-25T12:42:24.057Z,35
2016-11-25T12:43:23.790Z,35
2016-11-25T12:44:24.156Z,35
2016-11-25T12:45:23.913Z,40
2016-11-25T12:46:23.979Z,40
2016-11-25T12:47:24.051Z,40
2016-11-25T12:48:24.086Z,45
2016-11-25T12:49:24.267Z,45
2016-11-25T12:50:24.205Z,45
2016-11-25T12:51:24.247Z,45
2016-11-25T12:52:24.325Z,45
2016-11-25T12:53:24.377Z,45
2016-11-25T12:54:24.423Z,40
2016-11-25T12:55:24.496Z,40
2016-11-25T12:56:24.880Z,35
2016-11-25T12:57:24.608Z,35
2016-11-25T12:58:24.687Z,30
2016-11-25T12:59:24.930Z,30
2016-11-25T13:00:24.780Z,25
2016-11-25T13:01:24.818Z,25
2016-11-25T13:02:24.884Z,20
2016-11-25T13:03:24.955Z,20
2016-11-25T13:04:24.998Z,20
2016-11-25T13:05:25.066Z,15
2016-11-25T13:06:25.116Z,15
2016-11-25T13:07:25.196Z,15
2016-11-25T13:08:25.220Z,10
2016-11-25T13:09:25.304Z,10
2016-11-25T13:10:25.343Z,10
2016-11-25T13:11:25.421Z,10
2016-11-25T13:12:25.472Z,10
2016-11-25T13:13:25.549Z,10
2016-11-25T13:14:25.586Z,10
2016-11-25T13:15:25.634Z,10
2016-11-25T13:16:25.724Z,10
2016-11-25T13:17:25.755Z,10
2016-11-25T13:18:25.818Z,10
2016-11-25T13:19:25.862Z,10
2016-11-25T13:20:25.920Z,10
2016-11-25T13:21:25.979Z,10
2016-11-25T13:22:26.029Z,10
2016-11-25T13:23:26.086Z,10
2016-11-25T13:24:26.156Z,10
2016-11-25T13:25:26.202Z,10
2016-11-25T13:26:26.253Z,10
2016-11-25T13:27:26.350Z,10
2016-11-25T13:28:26.402Z,10
2016-11-25T13:29:26.423Z,5
2016-11-25T13:30:26.504Z,5
2016-11-25T13:31:26.526Z,5
2016-11-25T13:32:26.591Z,5
2016-11-25T13:33:26.654Z,5
2016-11-25T13:34:26.719Z,5
2016-11-25T13:35:26.756Z,5
2016-11-25T13:36:26.837Z,5
2016-11-25T13:37:26.882Z,5
2016-11-25T13:38:26.922Z,10
2016-11-25T13:39:27.015Z,5
2016-11-25T13:40:27.078Z,5
2016-11-25T13:41:27.113Z,5
2016-11-25T13:42:27.163Z,5
2016-11-25T13:43:27.245Z,5
2016-11-25T13:44:27.277Z,5
2016-11-25T13:45:27.348Z,5
2016-11-25T13:46:27.419Z,5
2016-11-25T13:47:27.439Z,5
2016-11-25T13:48:27.519Z,5
2016-11-25T13:49:27.569Z,5
2016-11-25T13:50:27.649Z,5
2016-11-25T13:51:27.718Z,5
2016-11-25T13:52:27.757Z,10
2016-11-25T13:53:27.794Z,10
2016-11-25T13:54:27.849Z,10
2016-11-25T13:55:27.918Z,10
2016-11-25T13:56:27.970Z,5
2016-11-25T13:57:28.067Z,5
2016-11-25T13:58:28.097Z,5
2016-11-25T13:59:28.149Z,5
2016-11-25T14:00:28.208Z,5
2016-11-25T14:01:28.274Z,5
2016-11-25T14:02:28.316Z,5
2016-11-25T14:03:28.369Z,5
2016-11-25T14:04:28.462Z,5
2016-11-25T14:05:28.692Z,5
2016-11-25T14:06:28.541Z,5
2016-11-25T14:07:28.603Z,5
2016-11-25T14:08:28.657Z,5
2016-11-25T14:09:28.738Z,5
2016-11-25T14:10:28.781Z,5
2016-11-25T14:11:28.820Z,5
2016-11-25T14:12:28.906Z,5
2016-11-25T14:13:28.931Z,5
2016-11-25T14:14:29.011Z,10
2016-11-25T14:15:29.067Z,5
2016-11-25T14:16:29.151Z,5
2016-11-25T14:17:29.157Z,5
2016-11-25T14:18:29.219Z,5
2016-11-25T14:19:29.321Z,5
2016-11-25T14:20:29.346Z,5
2016-11-25T14:21:29.414Z,5
2016-11-25T14:22:29.480Z,5
2016-11-25T14:23:29.533Z,5
2016-11-25T14:24:29.573Z,5
2016-11-25T14:25:29.980Z,5
2016-11-25T14:26:29.709Z,5
2016-11-25T14:27:29.746Z,5
2016-11-25T14:28:29.807Z,5
2016-11-25T14:29:29.872Z,5
2016-11-25T14:30:29.935Z,5
2016-11-25T14:31:29.994Z,5
2016-11-25T14:32:30.048Z,0
2016-11-25T14:33:30.108Z,0
2016-11-25T14:34:30.171Z,0
2016-11-25T14:35:30.214Z,0